createdAt,value
2023-03-31T00:01:00.998Z,100602.13
2023-03-31T00:04:05.629Z,100598.66
2023-03-31T00:07:08.528Z,100600.94
2023-03-31T00:13:19.408Z,100646.41
2023-03-31T00:16:22.404Z,100634.03
2023-03-31T00:19:25.133Z,100613.28
2023-03-31T00:22:27.920Z,100610.22
2023-03-31T00:25:30.764Z,100617.19
2023-03-31T00:28:33.878Z,100643.16
2023-03-31T00:31:36.823Z,100650.72
2023-03-31T00:34:39.694Z,100642.38
2023-03-31T00:37:43.516Z,100641.16
2023-03-31T00:40:47.439Z,100640.56
2023-03-31T00:44:19.120Z,100635.47
2023-03-31T00:47:23.273Z,100622.63
2023-03-31T00:50:30.111Z,100622.41
2023-03-31T00:53:35.034Z,100609.34
2023-03-31T00:56:43.919Z,100605.25
2023-03-31T00:59:53.648Z,100603.22
2023-03-31T01:03:00.007Z,100592.00
2023-03-31T01:06:06.684Z,100595.06
2023-03-31T01:09:10.067Z,100593.63
2023-03-31T01:12:16.034Z,100584.06
2023-03-31T01:15:20.050Z,100578.75
2023-03-31T01:18:23.946Z,100561.56
2023-03-31T01:21:39.260Z,100565.47
2023-03-31T01:25:01.859Z,100565.03
2023-03-31T01:28:16.649Z,100562.63
2023-03-31T01:31:38.141Z,100553.22
2023-03-31T01:34:57.830Z,100557.75
2023-03-31T01:38:19.512Z,100550.41
2023-03-31T01:41:31.089Z,100548.56
2023-03-31T01:44:39.746Z,100551.81
2023-03-31T01:47:54.727Z,100545.72
2023-03-31T01:51:07.807Z,100548.03
2023-03-31T01:54:29.435Z,100539.03
2023-03-31T01:57:39.712Z,100536.16
2023-03-31T02:00:52.098Z,100532.69
2023-03-31T02:04:07.400Z,100522.47
2023-03-31T02:07:19.356Z,100513.53
2023-03-31T02:10:24.355Z,100502.94
2023-03-31T02:13:29.361Z,100508.66
2023-03-31T02:16:34.968Z,100503.41
2023-03-31T02:19:41.289Z,100504.00
2023-03-31T02:22:48.973Z,100500.53
2023-03-31T02:25:54.327Z,100500.94
2023-03-31T02:28:58.742Z,100506.91
2023-03-31T02:32:26.662Z,100511.16
2023-03-31T02:35:29.637Z,100512.44
2023-03-31T02:38:37.188Z,100508.97
2023-03-31T02:41:41.490Z,100508.34
2023-03-31T02:44:44.429Z,100506.56
2023-03-31T02:47:47.294Z,100507.59
2023-03-31T02:50:59.668Z,100513.50
2023-03-31T02:54:20.757Z,100513.94
2023-03-31T02:58:07.282Z,100517.63
2023-03-31T03:01:27.664Z,100517.59
2023-03-31T03:04:43.352Z,100511.91
2023-03-31T03:08:04.122Z,100518.81
2023-03-31T03:11:26.304Z,100519.84
2023-03-31T03:14:40.884Z,100517.19
2023-03-31T03:17:48.416Z,100513.31
2023-03-31T03:20:51.286Z,100514.75
2023-03-31T03:23:54.987Z,100508.44
2023-03-31T03:26:57.903Z,100499.06
2023-03-31T03:30:02.810Z,100495.22
2023-03-31T03:33:07.094Z,100501.31
2023-03-31T03:36:10.831Z,100501.69
2023-03-31T03:39:13.805Z,100501.88
2023-03-31T03:42:17.079Z,100491.31
2023-03-31T03:45:19.795Z,100501.47
2023-03-31T03:48:22.541Z,100493.13
2023-03-31T03:51:25.630Z,100494.75
2023-03-31T03:54:28.443Z,100489.06
2023-03-31T03:57:31.354Z,100489.47
2023-03-31T04:00:34.402Z,100488.47
2023-03-31T04:03:37.218Z,100482.34
2023-03-31T04:06:40.065Z,100480.91
2023-03-31T04:09:43.143Z,100475.63
2023-03-31T04:12:45.961Z,100479.91
2023-03-31T04:15:48.870Z,100475.41
2023-03-31T04:18:56.929Z,100468.47
2023-03-31T04:22:02.986Z,100467.03
2023-03-31T04:25:15.131Z,100461.13
2023-03-31T04:28:18.094Z,100469.06
2023-03-31T04:31:25.695Z,100469.09
2023-03-31T04:34:35.397Z,100468.69
2023-03-31T04:37:39.063Z,100460.97
2023-03-31T04:40:41.899Z,100451.19
2023-03-31T04:43:44.968Z,100446.50
2023-03-31T04:46:47.738Z,100443.41
2023-03-31T04:49:50.527Z,100449.28
2023-03-31T04:52:53.353Z,100449.06
2023-03-31T04:55:56.445Z,100444.13
2023-03-31T04:58:59.167Z,100440.84
2023-03-31T05:02:02.073Z,100434.53
2023-03-31T05:05:05.190Z,100436.31
2023-03-31T05:08:08.241Z,100440.59
2023-03-31T05:11:11.507Z,100437.09
2023-03-31T05:14:14.349Z,100442.41
2023-03-31T05:17:18.057Z,100432.75
2023-03-31T05:20:21.780Z,100434.91
2023-03-31T05:23:24.525Z,100434.28
2023-03-31T05:26:27.336Z,100441.75
2023-03-31T05:29:31.299Z,100425.50
2023-03-31T05:32:34.244Z,100429.09
2023-03-31T05:35:37.130Z,100427.56
2023-03-31T05:38:40.946Z,100425.00
2023-03-31T05:41:43.827Z,100423.19
2023-03-31T05:44:46.666Z,100424.53
2023-03-31T05:47:49.478Z,100434.72
2023-03-31T05:50:52.491Z,100425.16
2023-03-31T05:53:55.406Z,100422.25
2023-03-31T05:56:58.649Z,100412.03
2023-03-31T06:00:01.506Z,100425.56
2023-03-31T06:03:11.639Z,100424.47
2023-03-31T06:06:18.487Z,100423.78
2023-03-31T06:09:22.138Z,100414.25
2023-03-31T06:12:25.215Z,100411.59
2023-03-31T06:15:28.197Z,100419.47
2023-03-31T06:18:33.081Z,100418.88
2023-03-31T06:21:36.124Z,100410.16
2023-03-31T06:24:38.955Z,100420.22
2023-03-31T06:27:41.670Z,100416.31
2023-03-31T06:30:44.585Z,100420.81
2023-03-31T06:33:48.276Z,100417.09
2023-03-31T06:36:51.146Z,100414.19
2023-03-31T06:39:54.007Z,100415.19
2023-03-31T06:42:56.871Z,100412.94
2023-03-31T06:45:59.796Z,100404.19
2023-03-31T06:49:04.430Z,100417.38
2023-03-31T06:52:07.691Z,100415.34
2023-03-31T06:55:10.620Z,100417.13
2023-03-31T06:58:14.534Z,100414.41
2023-03-31T07:01:21.168Z,100415.72
2023-03-31T07:04:25.554Z,100410.25
2023-03-31T07:07:32.508Z,100407.63
2023-03-31T07:10:35.685Z,100409.03
2023-03-31T07:13:38.731Z,100405.78
2023-03-31T07:16:41.791Z,100399.41
2023-03-31T07:19:48.288Z,100398.72
2023-03-31T07:22:51.417Z,100396.53
2023-03-31T07:25:54.999Z,100402.16
2023-03-31T07:29:05.814Z,100387.31
2023-03-31T07:32:10.105Z,100385.53
2023-03-31T07:35:13.606Z,100375.09
2023-03-31T07:38:16.658Z,100373.63
2023-03-31T07:41:21.834Z,100370.50
2023-03-31T07:44:24.830Z,100378.38
2023-03-31T07:47:28.566Z,100373.47
2023-03-31T07:50:31.573Z,100369.53
2023-03-31T07:53:37.278Z,100362.72
2023-03-31T07:56:40.660Z,100361.69
2023-03-31T07:59:48.828Z,100359.59
2023-03-31T08:02:53.073Z,100356.38
2023-03-31T08:05:56.661Z,100344.13
2023-03-31T08:09:01.916Z,100359.97
2023-03-31T08:12:06.868Z,100355.72
2023-03-31T08:15:11.415Z,100362.28
2023-03-31T08:18:14.801Z,100354.78
2023-03-31T08:21:23.014Z,100355.47
2023-03-31T08:24:27.312Z,100356.94
2023-03-31T08:27:43.541Z,100349.41
2023-03-31T08:30:53.553Z,100338.16
2023-03-31T08:33:57.743Z,100333.25
2023-03-31T08:37:01.229Z,100330.03
2023-03-31T08:40:06.041Z,100320.97
2023-03-31T08:43:43.505Z,100316.31
2023-03-31T08:47:18.364Z,100311.94
2023-03-31T08:50:25.772Z,100306.59
2023-03-31T08:53:39.632Z,100308.22
2023-03-31T08:56:47.588Z,100288.50
2023-03-31T08:59:51.508Z,100291.25
2023-03-31T09:03:16.820Z,100293.47
2023-03-31T09:06:34.931Z,100280.38
2023-03-31T09:10:20.891Z,100285.59
2023-03-31T09:13:42.415Z,100279.28
2023-03-31T09:16:45.577Z,100283.50
2023-03-31T09:19:57.154Z,100272.22
2023-03-31T09:23:29.866Z,100255.22
2023-03-31T09:26:39.515Z,100237.28
2023-03-31T09:30:04.237Z,100235.44
2023-03-31T09:33:12.718Z,100227.06
2023-03-31T09:36:22.617Z,100219.88
2023-03-31T09:39:26.089Z,100218.69
2023-03-31T09:42:29.034Z,100206.38
2023-03-31T09:45:34.405Z,100199.81
2023-03-31T09:48:39.584Z,100202.31
2023-03-31T09:52:19.125Z,100192.00
2023-03-31T09:55:43.298Z,100184.16
2023-03-31T09:58:49.037Z,100170.31
2023-03-31T10:01:54.132Z,100179.59
2023-03-31T10:04:57.124Z,100150.63
2023-03-31T10:08:15.193Z,100159.63
2023-03-31T10:11:18.700Z,100146.53
2023-03-31T10:14:45.892Z,100131.81
2023-03-31T10:20:59.444Z,100126.97
2023-03-31T10:24:09.607Z,100117.22
2023-03-31T10:27:30.553Z,100111.09
2023-03-31T10:30:38.249Z,100097.97
2023-03-31T10:33:46.544Z,100088.91
2023-03-31T10:36:52.147Z,100081.72
2023-03-31T10:40:06.950Z,100072.75
2023-03-31T10:43:18.618Z,100072.44
2023-03-31T10:46:39.375Z,100065.94
2023-03-31T10:49:44.883Z,100044.81
2023-03-31T10:52:49.302Z,100044.56
2023-03-31T10:56:44.769Z,100040.44
2023-03-31T10:59:54.465Z,100036.00
2023-03-31T11:03:15.697Z,100042.63
2023-03-31T11:06:32.064Z,100047.63
2023-03-31T11:09:50.104Z,100031.88
2023-03-31T11:13:05.929Z,100021.72
2023-03-31T11:16:08.870Z,100020.69
2023-03-31T11:19:34.810Z,100025.97
2023-03-31T11:22:55.164Z,100017.81
2023-03-31T11:26:13.886Z,100002.13
2023-03-31T11:29:32.013Z,99996.53
2023-03-31T11:33:03.228Z,99997.63
2023-03-31T11:36:29.170Z,99974.50
2023-03-31T11:40:08.224Z,99972.22
2023-03-31T11:43:36.675Z,99965.72
2023-03-31T11:46:46.462Z,99953.19
2023-03-31T11:49:55.694Z,99953.00
2023-03-31T11:53:27.612Z,99930.16
2023-03-31T11:56:37.949Z,99916.16
2023-03-31T11:59:46.978Z,99894.19
2023-03-31T12:03:41.701Z,99902.16
2023-03-31T12:06:47.582Z,99882.31
2023-03-31T12:10:23.295Z,99886.41
2023-03-31T12:13:41.256Z,99877.03
2023-03-31T12:16:48.735Z,99880.88
2023-03-31T12:19:59.175Z,99886.91
2023-03-31T12:23:05.921Z,99887.88
2023-03-31T12:26:46.128Z,99879.13
2023-03-31T12:29:59.618Z,99883.72
2023-03-31T12:33:08.013Z,99870.09
2023-03-31T12:36:42.126Z,99858.84
2023-03-31T12:40:16.766Z,99862.03
2023-03-31T12:43:46.529Z,99861.09
2023-03-31T12:47:17.793Z,99860.34
2023-03-31T12:50:35.871Z,99836.69
2023-03-31T12:54:03.626Z,99836.16
2023-03-31T12:57:09.449Z,99827.53
2023-03-31T13:00:26.217Z,99825.16
2023-03-31T13:03:35.570Z,99831.44
2023-03-31T13:06:38.532Z,99829.81
2023-03-31T13:09:48.503Z,99832.06
2023-03-31T13:13:01.283Z,99816.88
2023-03-31T13:16:05.202Z,99808.28
2023-03-31T13:19:11.019Z,99817.59
2023-03-31T13:22:50.511Z,99798.13
2023-03-31T13:25:55.760Z,99793.63
2023-03-31T13:29:17.655Z,99798.66
2023-03-31T13:32:27.825Z,99794.09
2023-03-31T13:35:34.221Z,99785.63
2023-03-31T13:38:45.808Z,99774.72
2023-03-31T13:42:08.035Z,99763.06
2023-03-31T13:45:43.220Z,99758.75
2023-03-31T13:48:55.289Z,99747.72
2023-03-31T13:52:09.627Z,99730.22
2023-03-31T13:55:29.019Z,99724.22
2023-03-31T13:59:16.939Z,99738.50
2023-03-31T14:02:28.482Z,99733.69
2023-03-31T14:05:39.980Z,99730.41
2023-03-31T14:08:51.976Z,99739.66
2023-03-31T14:11:55.025Z,99722.81
2023-03-31T14:15:18.614Z,99722.03
2023-03-31T14:18:27.399Z,99728.31
2023-03-31T14:21:57.381Z,99705.09
2023-03-31T14:25:33.698Z,99705.72
2023-03-31T14:29:20.757Z,99702.81
2023-03-31T14:32:39.819Z,99687.56
2023-03-31T14:36:02.267Z,99693.13
2023-03-31T14:39:09.497Z,99683.13
2023-03-31T14:42:18.813Z,99690.69
2023-03-31T14:45:26.763Z,99688.66
2023-03-31T14:48:33.360Z,99682.63
2023-03-31T14:51:36.458Z,99679.81
2023-03-31T14:54:41.374Z,99675.34
2023-03-31T14:57:47.600Z,99679.50
2023-03-31T15:00:50.970Z,99677.50
2023-03-31T15:03:55.622Z,99672.22
2023-03-31T15:07:02.681Z,99675.91
2023-03-31T15:10:07.043Z,99663.84
2023-03-31T15:13:15.611Z,99672.34
2023-03-31T15:16:30.675Z,99677.25
2023-03-31T15:19:36.996Z,99673.88
2023-03-31T15:22:40.325Z,99672.84
2023-03-31T15:25:44.532Z,99676.56
2023-03-31T15:28:59.177Z,99678.03
2023-03-31T15:32:03.635Z,99671.41
2023-03-31T15:38:27.694Z,99675.78
2023-03-31T15:41:32.118Z,99680.28
2023-03-31T15:44:39.094Z,99668.66
2023-03-31T15:47:55.005Z,99671.53
2023-03-31T15:51:06.634Z,99653.28
2023-03-31T15:54:45.144Z,99664.59
2023-03-31T15:57:47.996Z,99651.72
2023-03-31T16:01:02.474Z,99658.19
2023-03-31T16:04:12.246Z,99654.78
2023-03-31T16:07:29.150Z,99649.16
2023-03-31T16:10:35.350Z,99640.19
2023-03-31T16:13:42.137Z,99635.09
2023-03-31T16:16:56.624Z,99638.44
2023-03-31T16:20:23.035Z,99631.03
2023-03-31T16:23:30.115Z,99624.34
2023-03-31T16:26:33.810Z,99634.84
2023-03-31T16:29:38.545Z,99628.69
2023-03-31T16:33:02.189Z,99632.78
2023-03-31T16:36:05.783Z,99630.09
2023-03-31T16:39:09.305Z,99633.09
2023-03-31T16:42:12.224Z,99632.06
2023-03-31T16:45:15.179Z,99626.97
2023-03-31T16:48:28.395Z,99628.63
2023-03-31T16:51:31.353Z,99600.53
2023-03-31T16:54:34.547Z,99596.78
2023-03-31T16:57:37.343Z,99602.44
2023-03-31T17:00:40.732Z,99605.91
2023-03-31T17:03:44.011Z,99598.97
2023-03-31T17:09:50.586Z,99602.75
2023-03-31T17:12:53.553Z,99601.97
2023-03-31T17:16:04.614Z,99597.41
2023-03-31T17:19:17.507Z,99605.72
2023-03-31T17:22:20.472Z,99612.13
2023-03-31T17:25:23.631Z,99607.03
2023-03-31T17:28:26.610Z,99613.22
2023-03-31T17:31:30.757Z,99614.00
2023-03-31T17:34:33.524Z,99623.06
2023-03-31T17:37:37.492Z,99617.44
2023-03-31T17:40:40.996Z,99615.28
2023-03-31T17:43:49.157Z,99609.94
2023-03-31T17:46:52.627Z,99607.50
2023-03-31T17:49:55.593Z,99624.06
2023-03-31T17:52:58.850Z,99622.97
2023-03-31T17:56:03.383Z,99627.53
2023-03-31T17:59:06.730Z,99634.47
2023-03-31T18:02:13.253Z,99631.00
2023-03-31T18:05:18.201Z,99643.78
2023-03-31T18:08:22.073Z,99643.47
2023-03-31T18:11:24.982Z,99639.22
2023-03-31T18:14:29.030Z,99638.94
2023-03-31T18:17:31.959Z,99638.41
2023-03-31T18:20:35.049Z,99645.59
2023-03-31T18:23:39.041Z,99643.19
2023-03-31T18:26:41.868Z,99648.78
2023-03-31T18:29:44.867Z,99647.47
2023-03-31T18:32:48.227Z,99647.75
2023-03-31T18:35:51.300Z,99645.31
2023-03-31T18:38:55.550Z,99647.41
2023-03-31T18:41:59.728Z,99646.88
2023-03-31T18:45:03.277Z,99647.19
2023-03-31T18:48:06.513Z,99636.47
2023-03-31T18:51:09.825Z,99642.56
2023-03-31T18:54:12.920Z,99643.94
2023-03-31T18:57:16.353Z,99648.19
2023-03-31T19:00:20.719Z,99646.03
2023-03-31T19:03:24.373Z,99650.28
2023-03-31T19:06:27.990Z,99645.94
2023-03-31T19:09:31.209Z,99646.47
2023-03-31T19:12:34.671Z,99653.97
2023-03-31T19:15:37.571Z,99653.38
2023-03-31T19:18:41.247Z,99641.56
2023-03-31T19:21:45.021Z,99648.47
2023-03-31T19:24:48.120Z,99642.63
2023-03-31T19:27:51.918Z,99642.25
2023-03-31T19:30:56.890Z,99638.97
2023-03-31T19:34:01.448Z,99640.28
2023-03-31T19:37:05.155Z,99637.34
2023-03-31T19:40:10.252Z,99630.91
2023-03-31T19:43:23.696Z,99629.50
2023-03-31T19:46:26.920Z,99625.97
2023-03-31T19:49:30.112Z,99624.88
2023-03-31T19:52:33.269Z,99626.16
2023-03-31T19:55:37.766Z,99629.59
2023-03-31T19:58:41.515Z,99631.41
2023-03-31T20:01:44.840Z,99628.66
2023-03-31T20:04:48.672Z,99632.91
2023-03-31T20:07:51.927Z,99631.88
2023-03-31T20:11:04.120Z,99630.00
2023-03-31T20:14:07.681Z,99631.28
2023-03-31T20:17:12.992Z,99628.03
2023-03-31T20:20:16.161Z,99639.66
2023-03-31T20:23:18.923Z,99636.38
2023-03-31T20:26:25.314Z,99641.13
2023-03-31T20:29:28.711Z,99640.72
2023-03-31T20:32:32.533Z,99634.69
2023-03-31T20:35:37.796Z,99629.94
2023-03-31T20:38:43.189Z,99634.53
2023-03-31T20:41:47.525Z,99635.34
2023-03-31T20:44:50.704Z,99632.66
2023-03-31T20:47:53.554Z,99632.19
2023-03-31T20:50:57.653Z,99627.59
2023-03-31T20:54:02.033Z,99634.78
2023-03-31T20:57:07.361Z,99629.97
2023-03-31T21:00:11.416Z,99640.59
2023-03-31T21:03:14.626Z,99632.31
2023-03-31T21:06:18.770Z,99629.66
2023-03-31T21:09:21.993Z,99634.66
2023-03-31T21:12:25.212Z,99631.13
2023-03-31T21:15:27.970Z,99632.66
2023-03-31T21:18:32.950Z,99641.63
2023-03-31T21:21:36.228Z,99641.53
2023-03-31T21:24:39.023Z,99639.28
2023-03-31T21:27:41.992Z,99641.81
2023-03-31T21:30:56.468Z,99639.78
2023-03-31T21:34:01.512Z,99648.66
2023-03-31T21:37:04.960Z,99651.72
2023-03-31T21:40:08.666Z,99646.00
2023-03-31T21:43:12.386Z,99650.47
2023-03-31T21:46:17.258Z,99650.28
2023-03-31T21:49:20.187Z,99640.03
2023-03-31T21:52:23.107Z,99635.94
2023-03-31T21:55:25.918Z,99643.50
2023-03-31T21:58:30.007Z,99638.00
2023-03-31T22:01:32.898Z,99635.94
2023-03-31T22:04:36.026Z,99632.78
2023-03-31T22:07:38.770Z,99628.66
2023-03-31T22:10:41.495Z,99630.97
2023-03-31T22:13:44.704Z,99628.22
2023-03-31T22:16:47.888Z,99631.81
2023-03-31T22:19:50.784Z,99636.34
2023-03-31T22:22:53.687Z,99629.00
2023-03-31T22:25:56.416Z,99626.00
2023-03-31T22:28:59.259Z,99604.44
2023-03-31T22:32:02.218Z,99611.81
2023-03-31T22:35:05.529Z,99607.47
2023-03-31T22:38:08.793Z,99610.50
2023-03-31T22:41:11.906Z,99606.28
2023-03-31T22:44:15.676Z,99604.91
2023-03-31T22:47:18.554Z,99598.47
2023-03-31T22:50:21.785Z,99599.75
2023-03-31T22:53:25.042Z,99592.16
2023-03-31T22:56:28.439Z,99582.69
2023-03-31T22:59:31.588Z,99579.69
2023-03-31T23:02:34.386Z,99573.81
2023-03-31T23:05:37.386Z,99564.81
2023-03-31T23:08:41.173Z,99565.13
2023-03-31T23:11:45.161Z,99556.47
2023-03-31T23:14:48.097Z,99556.78
2023-03-31T23:17:50.946Z,99554.28
2023-03-31T23:20:53.735Z,99545.03
2023-03-31T23:23:59.762Z,99533.34
2023-03-31T23:27:02.481Z,99548.91
2023-03-31T23:30:06.389Z,99547.25
2023-03-31T23:33:09.240Z,99545.22
2023-03-31T23:36:17.249Z,99553.78
2023-03-31T23:39:20.087Z,99554.47
2023-03-31T23:42:23.026Z,99547.25
2023-03-31T23:45:25.896Z,99558.31
2023-03-31T23:48:28.604Z,99547.69
2023-03-31T23:51:31.862Z,99543.69
2023-03-31T23:54:34.982Z,99545.41
2023-03-31T23:57:37.767Z,99552.34
